createdAt,value
2022-10-23T00:04:23.333Z,21.5
2022-10-23T00:09:23.314Z,22
2022-10-23T00:14:23.329Z,21.5
2022-10-23T00:19:23.272Z,21.5
2022-10-23T00:24:23.279Z,22
2022-10-23T00:29:23.240Z,21.5
2022-10-23T00:34:23.256Z,21.5
2022-10-23T00:39:23.273Z,21.5
2022-10-23T00:44:23.178Z,21
2022-10-23T00:49:23.147Z,21
2022-10-23T00:54:23.133Z,21
2022-10-23T00:59:23.107Z,21
2022-10-23T01:04:23.084Z,21
2022-10-23T01:09:23.137Z,21.5
2022-10-23T01:14:23.076Z,21.5
2022-10-23T01:19:23.029Z,21.5
2022-10-23T01:24:23.001Z,21
2022-10-23T01:29:23.092Z,21
2022-10-23T01:34:22.959Z,21
2022-10-23T01:39:22.935Z,21
2022-10-23T01:44:22.918Z,21
2022-10-23T01:49:22.901Z,20.5
2022-10-23T01:54:22.880Z,20.5
2022-10-23T01:59:22.856Z,20.5
2022-10-23T02:04:22.838Z,20.5
2022-10-23T02:09:22.823Z,20.5
2022-10-23T02:14:22.811Z,20.5
2022-10-23T02:19:22.779Z,20.5
2022-10-23T02:24:22.842Z,20.5
2022-10-23T02:29:22.736Z,20.5
2022-10-23T02:34:22.725Z,20.5
2022-10-23T02:39:22.696Z,21
2022-10-23T02:44:22.680Z,20.5
2022-10-23T02:49:22.659Z,21
2022-10-23T02:54:22.631Z,21
2022-10-23T02:59:22.622Z,21
2022-10-23T03:04:22.599Z,21
2022-10-23T03:09:22.583Z,20
2022-10-23T03:14:22.555Z,20
2022-10-23T03:19:22.529Z,20
2022-10-23T03:24:22.538Z,20
2022-10-23T03:29:22.493Z,20.5
2022-10-23T03:34:22.500Z,20
2022-10-23T03:39:22.505Z,20.5
2022-10-23T03:44:22.430Z,20.5
2022-10-23T03:49:22.409Z,20.5
2022-10-23T03:54:22.403Z,20.5
2022-10-23T03:59:22.462Z,20.5
2022-10-23T04:04:22.350Z,20.5
2022-10-23T04:09:22.349Z,20.5
2022-10-23T04:14:22.316Z,20
2022-10-23T04:19:22.286Z,19.5
2022-10-23T04:24:22.269Z,19.5
2022-10-23T04:29:22.252Z,19.5
2022-10-23T04:34:22.221Z,19.5
2022-10-23T04:39:22.213Z,20
2022-10-23T04:44:22.181Z,20
2022-10-23T04:49:22.166Z,20
2022-10-23T04:54:22.143Z,20
2022-10-23T04:59:22.118Z,20
2022-10-23T05:04:22.106Z,19.5
2022-10-23T05:09:22.080Z,19.5
2022-10-23T05:14:22.071Z,19.5
2022-10-23T05:19:22.051Z,19.5
2022-10-23T05:24:22.056Z,19
2022-10-23T05:29:21.999Z,19
2022-10-23T05:34:22.006Z,18.5
2022-10-23T05:39:21.992Z,18.5
2022-10-23T05:44:21.940Z,18.5
2022-10-23T05:49:21.909Z,19
2022-10-23T05:54:21.929Z,19.5
2022-10-23T05:59:21.877Z,19.5
2022-10-23T06:04:21.852Z,19.5
2022-10-23T06:09:21.840Z,20.5
2022-10-23T06:14:21.818Z,20
2022-10-23T06:19:21.845Z,19.5
2022-10-23T06:24:21.778Z,19.5
2022-10-23T06:29:21.802Z,19.5
2022-10-23T06:34:21.732Z,20.5
2022-10-23T06:39:21.719Z,20
2022-10-23T06:44:21.689Z,20
2022-10-23T06:49:21.680Z,19.5
2022-10-23T06:54:21.654Z,20
2022-10-23T06:59:21.655Z,19.5
2022-10-23T07:04:21.624Z,19.5
2022-10-23T07:09:21.673Z,20
2022-10-23T07:14:21.598Z,20
2022-10-23T07:19:21.542Z,20
2022-10-23T07:24:21.536Z,20
2022-10-23T07:34:21.526Z,19
2022-10-23T07:39:21.466Z,19.5
2022-10-23T07:44:21.504Z,17.5
2022-10-23T07:49:21.425Z,17
2022-10-23T07:54:21.508Z,17.5
2022-10-23T07:59:21.386Z,17.5
2022-10-23T08:04:21.384Z,17
2022-10-23T08:09:21.351Z,16.5
2022-10-23T08:14:21.320Z,16
2022-10-23T08:19:21.336Z,14
2022-10-23T08:24:21.284Z,10
2022-10-23T08:29:21.268Z,8
2022-10-23T08:34:21.245Z,5.5
2022-10-23T08:39:21.220Z,7
2022-10-23T08:44:21.208Z,0
2022-10-23T08:49:21.173Z,0.5
2022-10-23T08:54:21.161Z,0
2022-10-23T08:59:21.142Z,0
2022-10-23T09:04:21.114Z,0
2022-10-23T09:09:21.089Z,0
2022-10-23T09:14:21.072Z,0
2022-10-23T09:19:21.054Z,0
2022-10-23T09:24:21.060Z,0
2022-10-23T09:29:21.006Z,0
2022-10-23T09:34:20.992Z,0
2022-10-23T09:39:20.965Z,0
2022-10-23T09:44:20.957Z,0
2022-10-23T09:49:20.937Z,0
2022-10-23T09:54:20.905Z,0
2022-10-23T09:59:20.881Z,0
2022-10-23T10:04:20.861Z,0
2022-10-23T10:09:20.844Z,0
2022-10-23T10:14:20.822Z,0
2022-10-23T10:19:20.800Z,0
2022-10-23T10:24:20.779Z,0
2022-10-23T10:29:20.763Z,0
2022-10-23T10:34:20.737Z,0
2022-10-23T10:39:20.761Z,0
2022-10-23T10:44:20.684Z,0
2022-10-23T10:49:20.679Z,0
2022-10-23T10:54:20.670Z,0
2022-10-23T10:59:20.708Z,0
2022-10-23T11:04:20.642Z,0
2022-10-23T11:09:20.628Z,0
2022-10-23T11:14:20.602Z,0
2022-10-23T11:19:20.551Z,0
2022-10-23T11:24:20.523Z,0
2022-10-23T11:29:20.497Z,0
2022-10-23T11:34:20.512Z,0
2022-10-23T11:39:20.454Z,0
2022-10-23T11:44:20.456Z,0
2022-10-23T11:49:20.418Z,0
2022-10-23T11:54:20.390Z,0
2022-10-23T11:59:20.372Z,0
2022-10-23T12:04:20.395Z,0
2022-10-23T12:09:20.343Z,0
2022-10-23T12:14:20.316Z,0
2022-10-23T12:19:20.319Z,0
2022-10-23T12:24:20.299Z,0
2022-10-23T12:29:20.241Z,0
2022-10-23T12:34:20.249Z,0
2022-10-23T12:39:20.203Z,0
2022-10-23T12:44:20.175Z,0
2022-10-23T12:49:20.153Z,0
2022-10-23T12:54:20.164Z,0
2022-10-23T12:59:20.128Z,0
2022-10-23T13:04:20.095Z,0
2022-10-23T13:09:20.090Z,0
2022-10-23T13:14:20.057Z,0
2022-10-23T13:19:20.027Z,1
2022-10-23T13:24:20.005Z,0
2022-10-23T13:29:20.005Z,0
2022-10-23T13:34:19.973Z,0
2022-10-23T13:39:19.944Z,0
2022-10-23T13:44:19.930Z,0
2022-10-23T13:49:19.929Z,2
2022-10-23T13:54:19.927Z,0
2022-10-23T13:59:19.860Z,0
2022-10-23T14:04:19.910Z,0.5
2022-10-23T14:09:19.812Z,0.5
2022-10-23T14:14:19.805Z,2.5
2022-10-23T14:19:19.775Z,5
2022-10-23T14:24:19.746Z,3
2022-10-23T14:29:19.753Z,1.5
2022-10-23T14:34:19.709Z,1
2022-10-23T14:39:19.695Z,3.5
2022-10-23T14:44:19.683Z,4
2022-10-23T14:49:19.649Z,3
2022-10-23T14:54:19.620Z,4
2022-10-23T14:59:19.608Z,5
2022-10-23T15:04:19.579Z,6
2022-10-23T15:09:19.583Z,9
2022-10-23T15:14:19.568Z,10
2022-10-23T15:19:19.521Z,9
2022-10-23T15:24:19.571Z,11.5
2022-10-23T15:29:19.552Z,12.5
2022-10-23T15:34:19.458Z,11.5
2022-10-23T15:39:19.442Z,11
2022-10-23T15:44:19.482Z,10
2022-10-23T15:49:19.390Z,10
2022-10-23T15:54:19.377Z,12
2022-10-23T15:59:19.349Z,12.5
2022-10-23T16:04:19.344Z,12.5
2022-10-23T16:09:19.306Z,12
2022-10-23T16:14:19.294Z,11
2022-10-23T16:19:19.259Z,12.5
2022-10-23T16:24:19.243Z,14
2022-10-23T16:29:19.277Z,15
2022-10-23T16:34:19.199Z,15.5
2022-10-23T16:39:19.248Z,17
2022-10-23T16:44:19.161Z,17.5
2022-10-23T16:49:19.137Z,18.5
2022-10-23T16:54:19.118Z,18
2022-10-23T16:59:19.095Z,17.5
2022-10-23T17:04:19.076Z,16
2022-10-23T17:09:19.050Z,16
2022-10-23T17:14:19.032Z,17
2022-10-23T17:19:19.013Z,18
2022-10-23T17:24:18.984Z,18.5
2022-10-23T17:29:18.967Z,18.5
2022-10-23T17:34:18.990Z,12
2022-10-23T17:39:18.967Z,9
2022-10-23T17:44:18.901Z,11
2022-10-23T17:49:18.877Z,11
2022-10-23T17:54:18.854Z,11.5
2022-10-23T17:59:18.843Z,10.5
2022-10-23T18:04:18.891Z,9
2022-10-23T18:09:18.793Z,12
2022-10-23T18:14:18.774Z,11
2022-10-23T18:19:18.762Z,14
2022-10-23T18:24:18.819Z,14.5
2022-10-23T18:29:18.733Z,15.5
2022-10-23T18:34:18.710Z,14
2022-10-23T18:39:18.665Z,14.5
2022-10-23T18:44:18.684Z,14.5
2022-10-23T18:49:18.622Z,15
2022-10-23T18:54:18.646Z,15.5
2022-10-23T18:59:18.629Z,13.5
2022-10-23T19:04:18.597Z,13.5
2022-10-23T19:09:18.630Z,12.5
2022-10-23T19:14:18.523Z,12
2022-10-23T19:19:18.508Z,11.5
2022-10-23T19:24:18.543Z,12.5
2022-10-23T19:29:18.449Z,13
2022-10-23T19:34:18.444Z,13.5
2022-10-23T19:39:18.456Z,13
2022-10-23T19:44:18.451Z,12
2022-10-23T19:49:18.375Z,10.5
2022-10-23T19:54:18.473Z,8.5
2022-10-23T19:59:18.362Z,6
2022-10-23T20:04:18.312Z,5
2022-10-23T20:09:18.290Z,3.5
2022-10-23T20:14:18.332Z,3.5
2022-10-23T20:19:18.300Z,0
2022-10-23T20:24:18.232Z,0
2022-10-23T20:29:18.273Z,0
2022-10-23T20:34:18.290Z,0
2022-10-23T20:39:18.159Z,0
2022-10-23T20:44:18.175Z,0
2022-10-23T20:49:18.210Z,99
2022-10-23T20:54:18.183Z,90
2022-10-23T20:59:18.155Z,85
2022-10-23T21:04:18.067Z,85
2022-10-23T21:09:18.027Z,77
2022-10-23T21:14:18.007Z,73
2022-10-23T21:19:17.990Z,69
2022-10-23T21:24:17.980Z,70
2022-10-23T21:29:17.971Z,68.5
2022-10-23T21:34:17.934Z,67
2022-10-23T21:39:17.911Z,67.5
2022-10-23T21:44:17.885Z,67.5
2022-10-23T21:49:17.863Z,67
2022-10-23T21:54:17.848Z,67
2022-10-23T21:59:17.860Z,68
2022-10-23T22:04:17.807Z,68
2022-10-23T22:09:17.781Z,66.5
2022-10-23T22:14:17.768Z,66.5
2022-10-23T22:19:17.732Z,66.5
2022-10-23T22:24:17.813Z,68
2022-10-23T22:29:17.755Z,66
2022-10-23T22:34:17.674Z,67
2022-10-23T22:39:17.661Z,67
2022-10-23T22:44:17.629Z,66.5
2022-10-23T22:49:17.662Z,66.5
2022-10-23T22:54:17.584Z,68
2022-10-23T22:59:17.567Z,67.5
2022-10-23T23:04:17.542Z,67.5
2022-10-23T23:09:17.518Z,69
2022-10-23T23:14:17.539Z,68.5
2022-10-23T23:19:17.500Z,68.5
2022-10-23T23:24:17.511Z,70
2022-10-23T23:29:17.437Z,71
2022-10-23T23:34:17.426Z,72
2022-10-23T23:39:17.396Z,73
2022-10-23T23:44:17.377Z,73.5
2022-10-23T23:49:17.366Z,73
2022-10-23T23:54:17.340Z,75.5
2022-10-23T23:59:17.307Z,76.5
